N252KA KRSW-KTBR
Flight info
| Callsign | N252KA |
|---|---|
| Flight time | 1h 21m |
| Altitude | 26000 |
| Route | LAL JINOS/N0315F250 ETORE FEMON/N0315F260 |
| Aircraft | B350/L-SBGRW/S |
Departure
| Time | 2026-05-08 03:48 |
|---|---|
| Airport | Southwest Florida International Airport (KRSW) |
Arrival
| Time | 2026-05-08 05:09 |
|---|---|
| Airport | Statesboro Bulloch County Airport (KTBR) |
| Time | Latitude | Longitude | Altitude | Speed | Heading |
|---|---|---|---|---|---|
| 2026-05-08 03:30 | 26.53384 | -81.76612 | 25 ft | 0 kts | 326° |
| 2026-05-08 03:33 | 26.53385 | -81.76612 | 25 ft | 0 kts | 325° |
| 2026-05-08 03:42 | 26.53392 | -81.76611 | 25 ft | 4 kts | 42° |
| 2026-05-08 03:42 | 26.53373 | -81.76574 | 25 ft | 10 kts | 164° |
| 2026-05-08 03:42 | 26.53303 | -81.76543 | 25 ft | 17 kts | 149° |
| 2026-05-08 03:42 | 26.53234 | -81.76489 | 25 ft | 16 kts | 144° |
| 2026-05-08 03:43 | 26.53178 | -81.76415 | 25 ft | 14 kts | 84° |
| 2026-05-08 03:43 | 26.53260 | -81.76270 | 25 ft | 26 kts | 61° |
| 2026-05-08 03:43 | 26.53371 | -81.76108 | 26 ft | 21 kts | 53° |
| 2026-05-08 03:43 | 26.53445 | -81.75994 | 26 ft | 21 kts | 54° |
| 2026-05-08 03:44 | 26.53541 | -81.75848 | 27 ft | 29 kts | 54° |
| 2026-05-08 03:44 | 26.53652 | -81.75675 | 27 ft | 19 kts | 54° |
| 2026-05-08 03:44 | 26.53729 | -81.75555 | 27 ft | 17 kts | 57° |
| 2026-05-08 03:44 | 26.53790 | -81.75465 | 27 ft | 12 kts | 53° |
| 2026-05-08 03:45 | 26.53873 | -81.75337 | 27 ft | 24 kts | 53° |
| 2026-05-08 03:45 | 26.53955 | -81.75211 | 27 ft | 21 kts | 54° |
| 2026-05-08 03:45 | 26.54062 | -81.75047 | 27 ft | 24 kts | 55° |
| 2026-05-08 03:45 | 26.54167 | -81.74886 | 27 ft | 27 kts | 54° |
| 2026-05-08 03:46 | 26.54266 | -81.74734 | 27 ft | 22 kts | 54° |
| 2026-05-08 03:46 | 26.54376 | -81.74565 | 27 ft | 25 kts | 53° |
| 2026-05-08 03:46 | 26.54479 | -81.74406 | 27 ft | 27 kts | 53° |
| 2026-05-08 03:46 | 26.54563 | -81.74278 | 27 ft | 23 kts | 54° |
| 2026-05-08 03:47 | 26.54647 | -81.74146 | 27 ft | 14 kts | 64° |
| 2026-05-08 03:47 | 26.54607 | -81.74061 | 27 ft | 14 kts | 146° |
| 2026-05-08 03:47 | 26.54569 | -81.74048 | 27 ft | 9 kts | 244° |
| 2026-05-08 03:47 | 26.54556 | -81.74071 | 27 ft | 17 kts | 235° |
| 2026-05-08 03:48 | 26.54277 | -81.74500 | 27 ft | 111 kts | 234° |
| 2026-05-08 03:48 | 26.53712 | -81.75352 | 118 ft | 152 kts | 234° |
| 2026-05-08 03:48 | 26.53030 | -81.76383 | 434 ft | 176 kts | 235° |
| 2026-05-08 03:48 | 26.52216 | -81.77473 | 823 ft | 192 kts | 226° |
| 2026-05-08 03:49 | 26.51181 | -81.78490 | 1254 ft | 201 kts | 235° |
| 2026-05-08 03:49 | 26.50841 | -81.79977 | 1577 ft | 204 kts | 284° |
| 2026-05-08 03:49 | 26.51608 | -81.81259 | 1961 ft | 200 kts | 324° |
| 2026-05-08 03:49 | 26.52904 | -81.81704 | 2507 ft | 194 kts | 359° |
| 2026-05-08 03:50 | 26.54214 | -81.81454 | 2959 ft | 192 kts | 11° |
| 2026-05-08 03:50 | 26.55549 | -81.81134 | 3287 ft | 198 kts | 12° |
| 2026-05-08 03:50 | 26.56914 | -81.80807 | 3584 ft | 202 kts | 11° |
| 2026-05-08 03:50 | 26.58291 | -81.80498 | 4021 ft | 200 kts | 11° |
| 2026-05-08 03:51 | 26.59686 | -81.80179 | 4294 ft | 206 kts | 12° |
| 2026-05-08 03:51 | 26.61101 | -81.79823 | 4621 ft | 207 kts | 12° |
| 2026-05-08 03:51 | 26.62517 | -81.79555 | 5005 ft | 205 kts | 7° |
| 2026-05-08 03:51 | 26.63944 | -81.79326 | 5312 ft | 207 kts | 8° |
| 2026-05-08 03:52 | 26.65388 | -81.79079 | 5528 ft | 213 kts | 8° |
| 2026-05-08 03:52 | 26.66851 | -81.78867 | 5907 ft | 209 kts | 3° |
| 2026-05-08 03:52 | 26.68315 | -81.78818 | 6221 ft | 210 kts | 1° |
| 2026-05-08 03:52 | 26.69824 | -81.78799 | 6318 ft | 220 kts | 358° |
| 2026-05-08 03:53 | 26.71366 | -81.78886 | 6528 ft | 223 kts | 356° |
| 2026-05-08 03:53 | 26.72913 | -81.78999 | 6812 ft | 222 kts | 353° |
| 2026-05-08 03:53 | 26.74453 | -81.79216 | 7072 ft | 223 kts | 351° |
| 2026-05-08 03:53 | 26.76001 | -81.79474 | 7317 ft | 224 kts | 351° |
| 2026-05-08 03:54 | 26.77558 | -81.79745 | 7552 ft | 225 kts | 350° |
| 2026-05-08 03:54 | 26.79122 | -81.80020 | 7769 ft | 227 kts | 350° |
| 2026-05-08 03:54 | 26.80691 | -81.80298 | 7979 ft | 230 kts | 350° |
| 2026-05-08 03:54 | 26.82295 | -81.80582 | 8186 ft | 232 kts | 350° |
| 2026-05-08 03:55 | 26.83911 | -81.80868 | 8405 ft | 234 kts | 350° |
| 2026-05-08 03:55 | 26.85506 | -81.81150 | 8611 ft | 235 kts | 350° |
| 2026-05-08 03:55 | 26.87131 | -81.81438 | 8850 ft | 236 kts | 350° |
| 2026-05-08 03:55 | 26.88757 | -81.81726 | 9122 ft | 236 kts | 349° |
| 2026-05-08 03:56 | 26.90394 | -81.82016 | 9387 ft | 236 kts | 349° |
| 2026-05-08 03:56 | 26.92043 | -81.82309 | 9631 ft | 237 kts | 349° |
| 2026-05-08 03:56 | 26.93681 | -81.82599 | 9877 ft | 238 kts | 349° |
| 2026-05-08 03:56 | 26.95337 | -81.82893 | 10102 ft | 239 kts | 349° |
| 2026-05-08 03:57 | 26.96990 | -81.83186 | 10307 ft | 241 kts | 349° |
| 2026-05-08 03:57 | 26.98664 | -81.83483 | 10510 ft | 243 kts | 348° |
| 2026-05-08 03:57 | 27.00337 | -81.83780 | 10708 ft | 244 kts | 349° |
| 2026-05-08 03:57 | 27.02056 | -81.84086 | 10918 ft | 245 kts | 348° |
| 2026-05-08 03:58 | 27.03749 | -81.84387 | 11113 ft | 246 kts | 348° |
| 2026-05-08 03:58 | 27.05456 | -81.84691 | 11309 ft | 247 kts | 348° |
| 2026-05-08 03:58 | 27.07180 | -81.84998 | 11504 ft | 248 kts | 348° |
| 2026-05-08 03:58 | 27.08884 | -81.85300 | 11689 ft | 249 kts | 348° |
| 2026-05-08 03:59 | 27.10620 | -81.85609 | 11872 ft | 249 kts | 348° |
| 2026-05-08 03:59 | 27.12337 | -81.85915 | 12050 ft | 249 kts | 348° |
| 2026-05-08 03:59 | 27.14052 | -81.86220 | 12229 ft | 250 kts | 348° |
| 2026-05-08 03:59 | 27.15795 | -81.86530 | 12394 ft | 251 kts | 348° |
| 2026-05-08 04:00 | 27.17539 | -81.86841 | 12553 ft | 252 kts | 347° |
| 2026-05-08 04:00 | 27.19288 | -81.87153 | 12700 ft | 253 kts | 348° |
| 2026-05-08 04:00 | 27.21040 | -81.87464 | 12859 ft | 253 kts | 347° |
| 2026-05-08 04:00 | 27.22817 | -81.87781 | 13004 ft | 254 kts | 347° |
| 2026-05-08 04:01 | 27.24575 | -81.88094 | 13164 ft | 255 kts | 347° |
| 2026-05-08 04:01 | 27.26329 | -81.88408 | 13350 ft | 254 kts | 347° |
| 2026-05-08 04:01 | 27.28087 | -81.88721 | 13541 ft | 254 kts | 347° |
| 2026-05-08 04:01 | 27.29836 | -81.89033 | 13755 ft | 253 kts | 346° |
| 2026-05-08 04:02 | 27.31580 | -81.89345 | 13962 ft | 253 kts | 346° |
| 2026-05-08 04:02 | 27.33340 | -81.89659 | 14163 ft | 252 kts | 346° |
| 2026-05-08 04:02 | 27.35090 | -81.89972 | 14352 ft | 252 kts | 346° |
| 2026-05-08 04:02 | 27.36827 | -81.90282 | 14527 ft | 253 kts | 346° |
| 2026-05-08 04:03 | 27.38591 | -81.90598 | 14700 ft | 253 kts | 346° |
| 2026-05-08 04:03 | 27.42084 | -81.91223 | 15025 ft | 254 kts | 346° |
| 2026-05-08 04:03 | 27.43846 | -81.91538 | 15174 ft | 254 kts | 346° |
| 2026-05-08 04:04 | 27.45595 | -81.91852 | 15314 ft | 255 kts | 346° |
| 2026-05-08 04:04 | 27.47361 | -81.92168 | 15487 ft | 256 kts | 346° |
| 2026-05-08 04:04 | 27.49147 | -81.92487 | 15757 ft | 256 kts | 345° |
| 2026-05-08 04:04 | 27.50894 | -81.92800 | 16049 ft | 254 kts | 345° |
| 2026-05-08 04:05 | 27.52644 | -81.93115 | 16312 ft | 253 kts | 345° |
| 2026-05-08 04:05 | 27.54404 | -81.93430 | 16556 ft | 253 kts | 345° |
| 2026-05-08 04:05 | 27.56139 | -81.93742 | 16768 ft | 253 kts | 345° |
| 2026-05-08 04:05 | 27.57898 | -81.94057 | 16982 ft | 254 kts | 345° |
| 2026-05-08 04:06 | 27.59650 | -81.94372 | 17193 ft | 254 kts | 344° |
| 2026-05-08 04:06 | 27.61423 | -81.94690 | 17389 ft | 255 kts | 344° |
| 2026-05-08 04:06 | 27.63202 | -81.95010 | 17576 ft | 256 kts | 344° |
| 2026-05-08 04:06 | 27.64955 | -81.95324 | 17776 ft | 256 kts | 344° |
| 2026-05-08 04:07 | 27.66719 | -81.95641 | 17971 ft | 256 kts | 344° |
| 2026-05-08 04:07 | 27.68479 | -81.95958 | 18140 ft | 256 kts | 344° |
| 2026-05-08 04:07 | 27.70264 | -81.96278 | 18327 ft | 256 kts | 344° |
| 2026-05-08 04:07 | 27.72038 | -81.96597 | 18525 ft | 254 kts | 343° |
| 2026-05-08 04:08 | 27.73793 | -81.96913 | 18688 ft | 254 kts | 343° |
| 2026-05-08 04:08 | 27.75538 | -81.97227 | 18894 ft | 254 kts | 343° |
| 2026-05-08 04:08 | 27.77300 | -81.97545 | 19097 ft | 253 kts | 343° |
| 2026-05-08 04:08 | 27.79032 | -81.97857 | 19273 ft | 253 kts | 343° |
| 2026-05-08 04:09 | 27.80795 | -81.98174 | 19433 ft | 253 kts | 343° |
| 2026-05-08 04:09 | 27.82531 | -81.98487 | 19633 ft | 251 kts | 342° |
| 2026-05-08 04:09 | 27.84252 | -81.98798 | 19833 ft | 250 kts | 342° |
| 2026-05-08 04:09 | 27.85999 | -81.99113 | 20026 ft | 250 kts | 343° |
| 2026-05-08 04:10 | 27.87708 | -81.99422 | 20201 ft | 249 kts | 343° |
| 2026-05-08 04:10 | 27.89459 | -81.99738 | 20363 ft | 250 kts | 343° |
| 2026-05-08 04:10 | 27.91192 | -82.00050 | 20525 ft | 250 kts | 342° |
| 2026-05-08 04:10 | 27.92940 | -82.00365 | 20708 ft | 249 kts | 342° |
| 2026-05-08 04:11 | 27.94652 | -82.00675 | 20893 ft | 248 kts | 342° |
| 2026-05-08 04:11 | 27.96378 | -82.00987 | 21054 ft | 248 kts | 342° |
| 2026-05-08 04:11 | 27.98107 | -82.01300 | 21206 ft | 248 kts | 342° |
| 2026-05-08 04:11 | 27.99860 | -82.01463 | 21323 ft | 251 kts | 344° |
| 2026-05-08 04:12 | 28.01508 | -82.01969 | 21459 ft | 242 kts | 334° |
| 2026-05-08 04:12 | 28.03128 | -82.02503 | 21772 ft | 237 kts | 335° |
| 2026-05-08 04:12 | 28.04717 | -82.02982 | 22045 ft | 232 kts | 336° |
| 2026-05-08 04:12 | 28.06266 | -82.03426 | 22288 ft | 228 kts | 336° |
| 2026-05-08 04:13 | 28.07820 | -82.03861 | 22514 ft | 225 kts | 335° |
| 2026-05-08 04:13 | 28.09347 | -82.04282 | 22718 ft | 223 kts | 336° |
| 2026-05-08 04:13 | 28.10860 | -82.04696 | 22902 ft | 221 kts | 336° |
| 2026-05-08 04:13 | 28.12368 | -82.05107 | 23083 ft | 220 kts | 336° |
| 2026-05-08 04:14 | 28.13865 | -82.05514 | 23254 ft | 218 kts | 335° |
| 2026-05-08 04:14 | 28.15340 | -82.05914 | 23420 ft | 217 kts | 335° |
| 2026-05-08 04:14 | 28.16790 | -82.06307 | 23570 ft | 217 kts | 335° |
| 2026-05-08 04:14 | 28.18277 | -82.06712 | 23720 ft | 216 kts | 336° |
| 2026-05-08 04:15 | 28.19746 | -82.07111 | 23860 ft | 218 kts | 335° |
| 2026-05-08 04:15 | 28.21244 | -82.07519 | 23972 ft | 223 kts | 336° |
| 2026-05-08 04:15 | 28.22771 | -82.07933 | 24140 ft | 224 kts | 336° |
| 2026-05-08 04:15 | 28.24295 | -82.08347 | 24319 ft | 226 kts | 336° |
| 2026-05-08 04:16 | 28.25848 | -82.08768 | 24510 ft | 227 kts | 336° |
| 2026-05-08 04:16 | 28.27389 | -82.09186 | 24703 ft | 228 kts | 335° |
| 2026-05-08 04:16 | 28.28950 | -82.09610 | 24890 ft | 229 kts | 335° |
| 2026-05-08 04:16 | 28.30513 | -82.10034 | 25087 ft | 229 kts | 335° |
| 2026-05-08 04:17 | 28.32079 | -82.10460 | 25279 ft | 229 kts | 335° |
| 2026-05-08 04:17 | 28.33640 | -82.10884 | 25467 ft | 230 kts | 335° |
| 2026-05-08 04:17 | 28.35220 | -82.11314 | 25664 ft | 229 kts | 335° |
| 2026-05-08 04:17 | 28.36757 | -82.11732 | 25840 ft | 230 kts | 335° |
| 2026-05-08 04:18 | 28.38339 | -82.12163 | 25992 ft | 231 kts | 335° |
| 2026-05-08 04:18 | 28.39928 | -82.12598 | 26017 ft | 238 kts | 335° |
| 2026-05-08 04:18 | 28.41599 | -82.13053 | 26020 ft | 246 kts | 336° |
| 2026-05-08 04:18 | 28.43287 | -82.13513 | 26020 ft | 253 kts | 336° |
| 2026-05-08 04:19 | 28.45023 | -82.13986 | 26017 ft | 259 kts | 336° |
| 2026-05-08 04:19 | 28.46833 | -82.14477 | 26012 ft | 266 kts | 338° |
| 2026-05-08 04:19 | 28.48765 | -82.14484 | 26012 ft | 293 kts | 2° |
| 2026-05-08 04:19 | 28.50761 | -82.13752 | 26023 ft | 304 kts | 9° |
| 2026-05-08 04:20 | 28.52783 | -82.12965 | 26012 ft | 308 kts | 9° |
| 2026-05-08 04:20 | 28.54827 | -82.12180 | 26011 ft | 313 kts | 9° |
| 2026-05-08 04:20 | 28.56945 | -82.11372 | 26009 ft | 317 kts | 9° |
| 2026-05-08 04:20 | 28.59053 | -82.10568 | 26011 ft | 321 kts | 9° |
| 2026-05-08 04:21 | 28.61198 | -82.09752 | 26008 ft | 325 kts | 9° |
| 2026-05-08 04:21 | 28.63368 | -82.08925 | 26011 ft | 328 kts | 9° |
| 2026-05-08 04:21 | 28.65564 | -82.08089 | 26009 ft | 331 kts | 9° |
| 2026-05-08 04:21 | 28.67754 | -82.07254 | 26008 ft | 333 kts | 9° |
| 2026-05-08 04:22 | 28.69981 | -82.06405 | 26008 ft | 336 kts | 9° |
| 2026-05-08 04:22 | 28.72218 | -82.05552 | 26012 ft | 338 kts | 9° |
| 2026-05-08 04:22 | 28.74460 | -82.04697 | 26009 ft | 340 kts | 9° |
| 2026-05-08 04:22 | 28.76728 | -82.03831 | 26010 ft | 341 kts | 9° |
| 2026-05-08 04:23 | 28.79042 | -82.02947 | 26009 ft | 343 kts | 9° |
| 2026-05-08 04:23 | 28.81322 | -82.02076 | 26011 ft | 344 kts | 9° |
| 2026-05-08 04:23 | 28.83605 | -82.01203 | 26007 ft | 345 kts | 9° |
| 2026-05-08 04:23 | 28.85929 | -82.00315 | 26011 ft | 346 kts | 9° |
| 2026-05-08 04:24 | 28.88211 | -81.99442 | 26003 ft | 348 kts | 9° |
| 2026-05-08 04:24 | 28.90517 | -81.98560 | 26009 ft | 348 kts | 9° |
| 2026-05-08 04:24 | 28.92847 | -81.97667 | 26011 ft | 349 kts | 9° |
| 2026-05-08 04:24 | 28.95177 | -81.96775 | 26009 ft | 350 kts | 9° |
| 2026-05-08 04:25 | 28.97530 | -81.95873 | 26000 ft | 351 kts | 9° |
| 2026-05-08 04:25 | 28.99867 | -81.94977 | 26006 ft | 351 kts | 9° |
| 2026-05-08 04:25 | 29.02202 | -81.94081 | 26004 ft | 352 kts | 9° |
| 2026-05-08 04:25 | 29.04525 | -81.93188 | 26006 ft | 352 kts | 9° |
| 2026-05-08 04:26 | 29.06866 | -81.92291 | 25997 ft | 353 kts | 9° |
| 2026-05-08 04:26 | 29.09246 | -81.91376 | 25996 ft | 353 kts | 9° |
| 2026-05-08 04:26 | 29.11591 | -81.90475 | 26005 ft | 353 kts | 9° |
| 2026-05-08 04:26 | 29.13919 | -81.89579 | 26004 ft | 353 kts | 9° |
| 2026-05-08 04:27 | 29.16258 | -81.88679 | 26001 ft | 354 kts | 9° |
| 2026-05-08 04:27 | 29.18602 | -81.87777 | 26003 ft | 354 kts | 9° |
| 2026-05-08 04:27 | 29.20617 | -81.87001 | 26002 ft | 354 kts | 9° |
| 2026-05-08 04:27 | 29.23033 | -81.86070 | 26001 ft | 355 kts | 9° |
| 2026-05-08 04:28 | 29.25363 | -81.85171 | 26004 ft | 355 kts | 9° |
| 2026-05-08 04:28 | 29.27710 | -81.84267 | 26004 ft | 355 kts | 9° |
| 2026-05-08 04:28 | 29.30066 | -81.83358 | 26003 ft | 355 kts | 9° |
| 2026-05-08 04:28 | 29.32416 | -81.82451 | 25995 ft | 355 kts | 9° |
| 2026-05-08 04:29 | 29.34782 | -81.81537 | 25992 ft | 356 kts | 9° |
| 2026-05-08 04:29 | 29.37175 | -81.80612 | 25989 ft | 356 kts | 9° |
| 2026-05-08 04:29 | 29.39547 | -81.79695 | 25986 ft | 356 kts | 9° |
| 2026-05-08 04:29 | 29.41936 | -81.78771 | 25987 ft | 356 kts | 9° |
| 2026-05-08 04:30 | 29.44270 | -81.77868 | 25986 ft | 356 kts | 8° |
| 2026-05-08 04:30 | 29.46620 | -81.76959 | 25986 ft | 356 kts | 9° |
| 2026-05-08 04:30 | 29.49000 | -81.76036 | 25991 ft | 356 kts | 8° |
| 2026-05-08 04:30 | 29.51333 | -81.75132 | 25986 ft | 356 kts | 8° |
| 2026-05-08 04:31 | 29.53709 | -81.74211 | 25986 ft | 356 kts | 9° |
| 2026-05-08 04:31 | 29.56079 | -81.73292 | 25983 ft | 356 kts | 9° |
| 2026-05-08 04:31 | 29.58422 | -81.72382 | 25982 ft | 356 kts | 8° |
| 2026-05-08 04:31 | 29.60817 | -81.71452 | 25986 ft | 356 kts | 9° |
| 2026-05-08 04:32 | 29.63186 | -81.70531 | 25988 ft | 357 kts | 8° |
| 2026-05-08 04:32 | 29.65546 | -81.69614 | 25993 ft | 357 kts | 8° |
| 2026-05-08 04:32 | 29.67925 | -81.68690 | 25978 ft | 357 kts | 8° |
| 2026-05-08 04:32 | 29.70278 | -81.67729 | 25967 ft | 363 kts | 14° |
| 2026-05-08 04:33 | 29.72630 | -81.66730 | 25982 ft | 352 kts | 5° |
| 2026-05-08 04:33 | 29.74997 | -81.65955 | 25985 ft | 353 kts | 6° |
| 2026-05-08 04:33 | 29.77351 | -81.65117 | 25990 ft | 354 kts | 7° |
| 2026-05-08 04:33 | 29.79712 | -81.64250 | 25981 ft | 354 kts | 7° |
| 2026-05-08 04:34 | 29.82088 | -81.63367 | 25981 ft | 354 kts | 7° |
| 2026-05-08 04:34 | 29.84440 | -81.62490 | 25979 ft | 354 kts | 7° |
| 2026-05-08 04:34 | 29.86827 | -81.61597 | 25985 ft | 354 kts | 7° |
| 2026-05-08 04:34 | 29.89161 | -81.60722 | 25985 ft | 353 kts | 7° |
| 2026-05-08 04:35 | 29.91523 | -81.59837 | 25988 ft | 353 kts | 7° |
| 2026-05-08 04:35 | 29.93912 | -81.58942 | 25982 ft | 354 kts | 7° |
| 2026-05-08 04:35 | 29.96271 | -81.58057 | 25986 ft | 354 kts | 7° |
| 2026-05-08 04:35 | 29.98650 | -81.57164 | 25990 ft | 354 kts | 7° |
| 2026-05-08 04:36 | 30.01012 | -81.56278 | 25984 ft | 354 kts | 7° |
| 2026-05-08 04:36 | 30.03362 | -81.55395 | 25986 ft | 354 kts | 7° |
| 2026-05-08 04:36 | 30.05727 | -81.54506 | 25986 ft | 354 kts | 7° |
| 2026-05-08 04:36 | 30.08075 | -81.53623 | 25990 ft | 354 kts | 7° |
| 2026-05-08 04:37 | 30.10457 | -81.52726 | 25990 ft | 355 kts | 7° |
| 2026-05-08 04:37 | 30.12818 | -81.51838 | 25994 ft | 355 kts | 7° |
| 2026-05-08 04:37 | 30.15165 | -81.50954 | 25995 ft | 355 kts | 7° |
| 2026-05-08 04:37 | 30.17305 | -81.50148 | 25987 ft | 355 kts | 7° |
| 2026-05-08 04:38 | 30.19686 | -81.49250 | 25995 ft | 355 kts | 7° |
| 2026-05-08 04:38 | 30.22037 | -81.48364 | 25994 ft | 355 kts | 7° |
| 2026-05-08 04:38 | 30.24445 | -81.47454 | 25987 ft | 355 kts | 6° |
| 2026-05-08 04:38 | 30.26809 | -81.46562 | 25989 ft | 355 kts | 7° |
| 2026-05-08 04:39 | 30.29177 | -81.45667 | 25995 ft | 355 kts | 6° |
| 2026-05-08 04:39 | 30.31549 | -81.44771 | 25991 ft | 355 kts | 7° |
| 2026-05-08 04:39 | 30.33932 | -81.43870 | 25991 ft | 355 kts | 7° |
| 2026-05-08 04:39 | 30.36300 | -81.42974 | 25993 ft | 355 kts | 7° |
| 2026-05-08 04:40 | 30.38666 | -81.42078 | 25988 ft | 355 kts | 7° |
| 2026-05-08 04:40 | 30.41041 | -81.41179 | 25989 ft | 355 kts | 7° |
| 2026-05-08 04:40 | 30.43392 | -81.40288 | 25989 ft | 355 kts | 7° |
| 2026-05-08 04:40 | 30.45745 | -81.39578 | 25955 ft | 340 kts | 353° |
| 2026-05-08 04:41 | 30.48050 | -81.39721 | 26008 ft | 322 kts | 340° |
| 2026-05-08 04:41 | 30.50274 | -81.40078 | 25992 ft | 322 kts | 340° |
| 2026-05-08 04:41 | 30.52501 | -81.40443 | 25996 ft | 322 kts | 340° |
| 2026-05-08 04:41 | 30.54718 | -81.40810 | 25988 ft | 322 kts | 339° |
| 2026-05-08 04:42 | 30.56981 | -81.41187 | 25987 ft | 322 kts | 340° |
| 2026-05-08 04:42 | 30.59202 | -81.41557 | 25990 ft | 322 kts | 339° |
| 2026-05-08 04:42 | 30.61461 | -81.41932 | 25989 ft | 322 kts | 339° |
| 2026-05-08 04:42 | 30.63691 | -81.42304 | 25992 ft | 322 kts | 340° |
| 2026-05-08 04:43 | 30.65935 | -81.42678 | 25983 ft | 323 kts | 339° |
| 2026-05-08 04:43 | 30.68152 | -81.43048 | 25994 ft | 322 kts | 339° |
| 2026-05-08 04:43 | 30.70407 | -81.43424 | 25989 ft | 322 kts | 339° |
| 2026-05-08 04:43 | 30.72634 | -81.43797 | 25985 ft | 322 kts | 339° |
| 2026-05-08 04:44 | 30.74872 | -81.44170 | 25981 ft | 322 kts | 339° |
| 2026-05-08 04:44 | 30.77116 | -81.44546 | 25986 ft | 322 kts | 339° |
| 2026-05-08 04:44 | 30.79348 | -81.44919 | 25989 ft | 322 kts | 339° |
| 2026-05-08 04:44 | 30.81576 | -81.45292 | 25987 ft | 322 kts | 339° |
| 2026-05-08 04:45 | 30.83796 | -81.45663 | 25980 ft | 323 kts | 339° |
| 2026-05-08 04:45 | 30.86056 | -81.46042 | 25989 ft | 322 kts | 339° |
| 2026-05-08 04:45 | 30.88323 | -81.46421 | 25982 ft | 322 kts | 339° |
| 2026-05-08 04:45 | 30.90536 | -81.46793 | 25977 ft | 322 kts | 339° |
| 2026-05-08 04:46 | 30.92780 | -81.47169 | 25981 ft | 322 kts | 339° |
| 2026-05-08 04:46 | 30.95013 | -81.47543 | 25984 ft | 322 kts | 339° |
| 2026-05-08 04:46 | 30.97231 | -81.47916 | 25982 ft | 322 kts | 339° |
| 2026-05-08 04:46 | 30.99473 | -81.48292 | 25981 ft | 322 kts | 339° |
| 2026-05-08 04:47 | 31.01710 | -81.48668 | 25982 ft | 322 kts | 339° |
| 2026-05-08 04:47 | 31.03942 | -81.49043 | 25983 ft | 321 kts | 339° |
| 2026-05-08 04:47 | 31.06178 | -81.49419 | 25982 ft | 321 kts | 339° |
| 2026-05-08 04:47 | 31.08404 | -81.49794 | 25835 ft | 320 kts | 339° |
| 2026-05-08 04:48 | 31.10593 | -81.50159 | 25654 ft | 311 kts | 339° |
| 2026-05-08 04:48 | 31.12742 | -81.50520 | 25473 ft | 304 kts | 339° |
| 2026-05-08 04:48 | 31.14793 | -81.50954 | 25297 ft | 291 kts | 332° |
| 2026-05-08 04:48 | 31.16652 | -81.51521 | 25141 ft | 284 kts | 332° |
| 2026-05-08 04:49 | 31.18590 | -81.52116 | 24975 ft | 282 kts | 331° |
| 2026-05-08 04:49 | 31.20553 | -81.52615 | 24813 ft | 291 kts | 339° |
| 2026-05-08 04:49 | 31.22580 | -81.52902 | 24661 ft | 292 kts | 339° |
| 2026-05-08 04:49 | 31.24582 | -81.53394 | 24492 ft | 282 kts | 331° |
| 2026-05-08 04:50 | 31.26488 | -81.53982 | 24339 ft | 281 kts | 332° |
| 2026-05-08 04:50 | 31.28381 | -81.54567 | 24183 ft | 281 kts | 331° |
| 2026-05-08 04:50 | 31.30328 | -81.55052 | 24011 ft | 294 kts | 343° |
| 2026-05-08 04:50 | 31.32459 | -81.54775 | 23865 ft | 311 kts | 357° |
| 2026-05-08 04:51 | 31.34608 | -81.54297 | 23691 ft | 313 kts | 357° |
| 2026-05-08 04:51 | 31.36790 | -81.53957 | 23367 ft | 303 kts | 345° |
| 2026-05-08 04:51 | 31.38790 | -81.54403 | 23084 ft | 290 kts | 332° |
| 2026-05-08 04:51 | 31.40780 | -81.55020 | 22799 ft | 294 kts | 332° |
| 2026-05-08 04:52 | 31.42767 | -81.55637 | 22506 ft | 297 kts | 332° |
| 2026-05-08 04:52 | 31.44794 | -81.56216 | 22209 ft | 308 kts | 339° |
| 2026-05-08 04:52 | 31.47051 | -81.56029 | 21907 ft | 338 kts | 3° |
| 2026-05-08 04:52 | 31.49321 | -81.55132 | 21626 ft | 337 kts | 1° |
| 2026-05-08 04:53 | 31.51564 | -81.55008 | 21322 ft | 313 kts | 341° |
| 2026-05-08 04:53 | 31.53689 | -81.55473 | 21035 ft | 304 kts | 333° |
| 2026-05-08 04:53 | 31.55732 | -81.56105 | 20653 ft | 308 kts | 333° |
| 2026-05-08 04:53 | 31.57853 | -81.56765 | 20196 ft | 314 kts | 333° |
| 2026-05-08 04:54 | 31.60006 | -81.57434 | 19742 ft | 317 kts | 334° |
| 2026-05-08 04:54 | 31.62159 | -81.58102 | 19287 ft | 320 kts | 334° |
| 2026-05-08 04:54 | 31.64341 | -81.58780 | 18831 ft | 322 kts | 334° |
| 2026-05-08 04:54 | 31.66532 | -81.59475 | 18362 ft | 322 kts | 332° |
| 2026-05-08 04:55 | 31.68804 | -81.59970 | 17869 ft | 340 kts | 346° |
| 2026-05-08 04:55 | 31.71066 | -81.60236 | 17407 ft | 312 kts | 336° |
| 2026-05-08 04:55 | 31.73115 | -81.60850 | 16936 ft | 296 kts | 334° |
| 2026-05-08 04:55 | 31.75098 | -81.61461 | 16425 ft | 286 kts | 334° |
| 2026-05-08 04:56 | 31.76966 | -81.62075 | 15925 ft | 278 kts | 335° |
| 2026-05-08 04:56 | 31.78923 | -81.62247 | 15559 ft | 280 kts | 346° |
| 2026-05-08 04:56 | 31.80867 | -81.62356 | 15263 ft | 276 kts | 345° |
| 2026-05-08 04:56 | 31.82810 | -81.62477 | 14999 ft | 274 kts | 345° |
| 2026-05-08 04:57 | 31.84718 | -81.62600 | 14714 ft | 271 kts | 345° |
| 2026-05-08 04:57 | 31.86604 | -81.62723 | 14396 ft | 268 kts | 345° |
| 2026-05-08 04:57 | 31.88470 | -81.62847 | 14109 ft | 266 kts | 345° |
| 2026-05-08 04:57 | 31.90335 | -81.62972 | 13765 ft | 266 kts | 345° |
| 2026-05-08 04:58 | 31.92164 | -81.63092 | 13375 ft | 260 kts | 346° |
| 2026-05-08 04:58 | 31.93954 | -81.63210 | 12937 ft | 254 kts | 345° |
| 2026-05-08 04:58 | 31.95696 | -81.63326 | 12536 ft | 248 kts | 345° |
| 2026-05-08 04:58 | 31.97414 | -81.63440 | 12164 ft | 244 kts | 345° |
| 2026-05-08 04:59 | 31.99113 | -81.63554 | 11747 ft | 242 kts | 346° |
| 2026-05-08 04:59 | 32.00785 | -81.63666 | 11283 ft | 240 kts | 345° |
| 2026-05-08 04:59 | 32.02464 | -81.63779 | 10815 ft | 239 kts | 346° |
| 2026-05-08 04:59 | 32.04137 | -81.63892 | 10350 ft | 237 kts | 346° |
| 2026-05-08 05:00 | 32.05722 | -81.64239 | 9914 ft | 227 kts | 335° |
| 2026-05-08 05:00 | 32.07262 | -81.64719 | 9327 ft | 232 kts | 336° |
| 2026-05-08 05:00 | 32.08839 | -81.65211 | 8687 ft | 238 kts | 336° |
| 2026-05-08 05:00 | 32.10464 | -81.65702 | 8046 ft | 244 kts | 342° |
| 2026-05-08 05:01 | 32.12192 | -81.65679 | 7415 ft | 254 kts | 356° |
| 2026-05-08 05:01 | 32.13845 | -81.65484 | 6821 ft | 257 kts | 359° |
| 2026-05-08 05:01 | 32.15547 | -81.65273 | 6197 ft | 257 kts | 359° |
| 2026-05-08 05:01 | 32.17363 | -81.65066 | 5544 ft | 257 kts | 359° |
| 2026-05-08 05:02 | 32.19126 | -81.64880 | 4899 ft | 256 kts | 359° |
| 2026-05-08 05:02 | 32.20896 | -81.64714 | 4244 ft | 253 kts | 359° |
| 2026-05-08 05:02 | 32.22445 | -81.64579 | 3601 ft | 254 kts | 359° |
| 2026-05-08 05:02 | 32.24229 | -81.64455 | 2794 ft | 254 kts | 359° |
| 2026-05-08 05:03 | 32.25991 | -81.64364 | 2008 ft | 252 kts | 359° |
| 2026-05-08 05:03 | 32.27669 | -81.64304 | 1802 ft | 226 kts | 359° |
| 2026-05-08 05:03 | 32.29160 | -81.64245 | 1755 ft | 201 kts | 359° |
| 2026-05-08 05:03 | 32.30497 | -81.64183 | 1755 ft | 178 kts | 359° |
| 2026-05-08 05:04 | 32.31675 | -81.64120 | 1756 ft | 158 kts | 359° |
| 2026-05-08 05:04 | 32.32724 | -81.64057 | 1753 ft | 144 kts | 359° |
| 2026-05-08 05:04 | 32.33731 | -81.63990 | 1776 ft | 143 kts | 359° |
| 2026-05-08 05:04 | 32.34710 | -81.64048 | 1773 ft | 140 kts | 343° |
| 2026-05-08 05:05 | 32.35674 | -81.64214 | 1783 ft | 134 kts | 351° |
| 2026-05-08 05:05 | 32.36570 | -81.64314 | 1785 ft | 124 kts | 351° |
| 2026-05-08 05:05 | 32.37471 | -81.64412 | 1798 ft | 133 kts | 351° |
| 2026-05-08 05:05 | 32.38430 | -81.64523 | 1790 ft | 141 kts | 351° |
| 2026-05-08 05:06 | 32.39429 | -81.64645 | 1780 ft | 145 kts | 351° |
| 2026-05-08 05:06 | 32.40407 | -81.64917 | 1760 ft | 138 kts | 327° |
| 2026-05-08 05:06 | 32.41076 | -81.65623 | 1746 ft | 117 kts | 319° |
| 2026-05-08 05:06 | 32.41635 | -81.66264 | 1702 ft | 113 kts | 318° |
| 2026-05-08 05:07 | 32.42222 | -81.66944 | 1596 ft | 119 kts | 318° |
| 2026-05-08 05:07 | 32.42821 | -81.67641 | 1434 ft | 121 kts | 317° |
| 2026-05-08 05:07 | 32.43416 | -81.68336 | 1260 ft | 114 kts | 317° |
| 2026-05-08 05:07 | 32.43979 | -81.68993 | 1114 ft | 115 kts | 317° |
| 2026-05-08 05:08 | 32.44549 | -81.69659 | 964 ft | 115 kts | 316° |
| 2026-05-08 05:08 | 32.45130 | -81.70339 | 790 ft | 114 kts | 317° |
| 2026-05-08 05:08 | 32.45680 | -81.71014 | 653 ft | 111 kts | 314° |
| 2026-05-08 05:08 | 32.46238 | -81.71662 | 536 ft | 112 kts | 317° |
| 2026-05-08 05:09 | 32.46820 | -81.72311 | 375 ft | 116 kts | 317° |
| 2026-05-08 05:09 | 32.47389 | -81.72967 | 206 ft | 107 kts | 316° |
| 2026-05-08 05:09 | 32.47853 | -81.73516 | 170 ft | 69 kts | 314° |
| 2026-05-08 05:09 | 32.48104 | -81.73810 | 174 ft | 32 kts | 315° |
| 2026-05-08 05:10 | 32.48267 | -81.74003 | 175 ft | 34 kts | 314° |
| 2026-05-08 05:10 | 32.48328 | -81.74151 | 175 ft | 8 kts | 184° |
| 2026-05-08 05:10 | 32.48277 | -81.74154 | 176 ft | 5 kts | 180° |
| 2026-05-08 05:11 | 32.48269 | -81.74154 | 175 ft | 0 kts | 182° |
| 2026-05-08 05:11 | 32.48267 | -81.74154 | 175 ft | 2 kts | 181° |
| 2026-05-08 05:11 | 32.48225 | -81.74155 | 175 ft | 9 kts | 181° |
| 2026-05-08 05:11 | 32.48146 | -81.74160 | 175 ft | 11 kts | 181° |
| 2026-05-08 05:12 | 32.48090 | -81.74140 | 175 ft | 4 kts | 198° |
| 2026-05-08 05:12 | 32.48087 | -81.74167 | 175 ft | 0 kts | 311° |